createdAt,value
2018-03-25T00:01:11.054Z,7.91
2018-03-25T00:03:38.456Z,7.95
2018-03-25T00:06:05.834Z,7.94
2018-03-25T00:08:33.233Z,8.13
2018-03-25T00:11:00.614Z,8.29
2018-03-25T00:13:28.006Z,8.32
2018-03-25T00:15:55.458Z,8.10
2018-03-25T00:18:22.854Z,8.11
2018-03-25T00:20:50.262Z,8.05
2018-03-25T00:23:17.661Z,8.13
2018-03-25T00:25:45.079Z,8.14
2018-03-25T00:28:12.474Z,8.17
2018-03-25T00:30:39.858Z,8.04
2018-03-25T00:33:07.250Z,7.91
2018-03-25T00:35:34.639Z,7.80
2018-03-25T00:38:02.062Z,7.80
2018-03-25T00:40:29.451Z,7.97
2018-03-25T00:42:56.879Z,8.00
2018-03-25T00:45:24.263Z,8.00
2018-03-25T00:47:51.654Z,8.07
2018-03-25T00:50:19.037Z,8.10
2018-03-25T00:52:46.490Z,8.18
2018-03-25T00:55:13.881Z,8.33
2018-03-25T00:57:41.298Z,8.34
2018-03-25T01:00:08.702Z,8.32
2018-03-25T01:02:36.118Z,8.45
2018-03-25T01:05:03.592Z,8.25
2018-03-25T01:07:30.990Z,8.24
2018-03-25T01:09:58.380Z,8.15
2018-03-25T01:12:25.851Z,8.22
2018-03-25T01:14:53.246Z,8.16
2018-03-25T01:17:20.626Z,8.10
2018-03-25T01:19:48.026Z,8.07
2018-03-25T01:22:15.419Z,7.82
2018-03-25T01:24:42.814Z,7.60
2018-03-25T01:27:10.278Z,7.59
2018-03-25T01:29:37.738Z,7.62
2018-03-25T01:32:05.208Z,7.61
2018-03-25T01:34:32.602Z,7.78
2018-03-25T01:37:00.098Z,7.85
2018-03-25T01:39:27.566Z,7.80
2018-03-25T01:41:55.019Z,7.78
2018-03-25T01:44:22.477Z,7.89
2018-03-25T01:46:49.870Z,7.96
2018-03-25T01:49:17.258Z,7.92
2018-03-25T01:51:44.647Z,8.00
2018-03-25T01:54:12.102Z,7.96
2018-03-25T01:56:39.491Z,8.07
2018-03-25T01:59:06.882Z,8.06
2018-03-25T02:01:34.267Z,8.12
2018-03-25T02:04:01.668Z,8.18
2018-03-25T02:06:29.079Z,7.93
2018-03-25T02:08:56.468Z,7.77
2018-03-25T02:11:23.886Z,7.83
2018-03-25T02:13:51.348Z,7.78
2018-03-25T02:16:18.735Z,7.78
2018-03-25T02:18:46.140Z,7.83
2018-03-25T02:21:13.523Z,8.01
2018-03-25T02:23:40.925Z,8.05
2018-03-25T02:26:08.305Z,8.06
2018-03-25T02:28:35.691Z,7.79
2018-03-25T02:31:03.087Z,7.64
2018-03-25T02:33:30.480Z,7.58
2018-03-25T02:35:57.942Z,7.58
2018-03-25T02:38:25.602Z,7.41
2018-03-25T02:40:53.160Z,7.35
2018-03-25T02:43:20.615Z,7.31
2018-03-25T02:45:48.002Z,7.35
2018-03-25T02:48:15.438Z,7.42
2018-03-25T02:50:42.888Z,7.43
2018-03-25T02:53:10.279Z,7.50
2018-03-25T02:55:37.676Z,7.45
2018-03-25T02:58:05.070Z,7.41
2018-03-25T03:00:32.480Z,7.57
2018-03-25T03:02:59.867Z,7.50
2018-03-25T03:05:27.251Z,7.56
2018-03-25T03:07:54.721Z,7.47
2018-03-25T03:10:22.126Z,7.32
2018-03-25T03:12:49.515Z,7.31
2018-03-25T03:15:16.906Z,7.41
2018-03-25T03:17:44.291Z,7.56
2018-03-25T03:20:11.691Z,7.63
2018-03-25T03:22:39.092Z,7.64
2018-03-25T03:25:06.544Z,7.52
2018-03-25T03:27:33.942Z,7.46
2018-03-25T03:30:01.339Z,7.49
2018-03-25T03:32:28.807Z,7.38
2018-03-25T03:34:56.254Z,7.20
2018-03-25T03:37:23.666Z,7.09
2018-03-25T03:39:51.085Z,7.31
2018-03-25T03:42:18.579Z,7.26
2018-03-25T03:44:45.974Z,7.41
2018-03-25T03:47:13.368Z,7.50
2018-03-25T03:49:40.841Z,7.62
2018-03-25T03:52:08.307Z,7.66
2018-03-25T03:54:35.704Z,7.63
2018-03-25T03:57:03.123Z,7.52
2018-03-25T03:59:30.590Z,7.51
2018-03-25T04:01:58.039Z,7.67
2018-03-25T04:04:25.430Z,7.56
2018-03-25T04:06:52.820Z,7.64
2018-03-25T04:09:20.295Z,7.62
2018-03-25T04:11:47.686Z,7.42
2018-03-25T04:14:15.077Z,7.30
2018-03-25T04:16:42.563Z,7.18
2018-03-25T04:19:10.026Z,7.10
2018-03-25T04:21:37.474Z,7.03
2018-03-25T04:24:04.870Z,6.96
2018-03-25T04:26:32.260Z,6.85
2018-03-25T04:28:59.651Z,6.90
2018-03-25T04:31:27.038Z,6.83
2018-03-25T04:33:54.450Z,6.88
2018-03-25T04:36:21.834Z,6.82
2018-03-25T04:38:49.223Z,6.83
2018-03-25T04:41:16.616Z,6.65
2018-03-25T04:43:44.081Z,6.62
2018-03-25T04:46:11.467Z,6.56
2018-03-25T04:48:38.851Z,6.49
2018-03-25T04:51:06.238Z,6.53
2018-03-25T04:53:33.634Z,6.63
2018-03-25T04:56:01.052Z,6.63
2018-03-25T04:58:28.524Z,6.58
2018-03-25T05:00:55.929Z,6.55
2018-03-25T05:03:23.364Z,6.46
2018-03-25T05:05:50.759Z,6.45
2018-03-25T05:08:18.142Z,6.44
2018-03-25T05:10:45.542Z,6.35
2018-03-25T05:13:12.934Z,6.27
2018-03-25T05:15:40.426Z,6.24
2018-03-25T05:18:07.813Z,6.36
2018-03-25T05:20:35.255Z,6.40
2018-03-25T05:23:02.642Z,6.38
2018-03-25T05:25:30.055Z,6.55
2018-03-25T05:27:57.449Z,6.63
2018-03-25T05:30:24.838Z,6.75
2018-03-25T05:32:52.223Z,6.81
2018-03-25T05:35:19.622Z,6.92
2018-03-25T05:37:47.008Z,6.90
2018-03-25T05:40:14.403Z,6.90
2018-03-25T05:42:41.788Z,6.87
2018-03-25T05:45:09.182Z,7.02
2018-03-25T05:47:36.574Z,6.90
2018-03-25T05:50:03.968Z,6.90
2018-03-25T05:52:31.451Z,6.88
2018-03-25T05:54:58.915Z,6.84
2018-03-25T05:57:26.362Z,6.86
2018-03-25T05:59:53.762Z,7.09
2018-03-25T06:02:21.153Z,7.04
2018-03-25T06:04:48.552Z,7.07
2018-03-25T06:07:15.939Z,7.17
2018-03-25T06:09:43.335Z,7.24
2018-03-25T06:12:10.817Z,7.23
2018-03-25T06:14:38.210Z,7.35
2018-03-25T06:17:05.602Z,7.38
2018-03-25T06:19:33.007Z,7.44
2018-03-25T06:22:00.382Z,7.43
2018-03-25T06:24:27.897Z,7.25
2018-03-25T06:26:55.279Z,7.23
2018-03-25T06:29:22.686Z,7.11
2018-03-25T06:31:50.156Z,7.28
2018-03-25T06:34:17.602Z,7.26
2018-03-25T06:36:44.994Z,7.28
2018-03-25T06:39:12.402Z,7.42
2018-03-25T06:41:39.796Z,7.54
2018-03-25T06:44:07.183Z,7.42
2018-03-25T06:46:34.674Z,7.59
2018-03-25T06:49:02.143Z,7.74
2018-03-25T06:51:29.540Z,7.79
2018-03-25T06:53:56.943Z,7.74
2018-03-25T06:56:24.344Z,7.92
2018-03-25T06:58:51.735Z,7.96
2018-03-25T07:01:19.159Z,7.79
2018-03-25T07:03:46.582Z,7.96
2018-03-25T07:06:13.976Z,8.21
2018-03-25T07:08:41.376Z,8.23
2018-03-25T07:11:08.773Z,8.25
2018-03-25T07:13:36.163Z,8.24
2018-03-25T07:16:03.647Z,8.26
2018-03-25T07:18:31.038Z,8.51
2018-03-25T07:20:58.451Z,8.61
2018-03-25T07:23:25.926Z,8.77
2018-03-25T07:25:53.314Z,8.77
2018-03-25T07:28:20.707Z,8.64
2018-03-25T07:30:48.152Z,8.53
2018-03-25T07:33:15.535Z,8.59
2018-03-25T07:35:42.987Z,8.63
2018-03-25T07:38:10.383Z,8.70
2018-03-25T07:40:37.794Z,8.77
2018-03-25T07:43:05.189Z,8.85
2018-03-25T07:45:32.679Z,8.88
2018-03-25T07:48:00.003Z,8.75
2018-03-25T07:50:27.414Z,8.90
2018-03-25T07:52:54.807Z,9.09
2018-03-25T07:55:22.193Z,9.15
2018-03-25T07:57:49.694Z,8.98
2018-03-25T08:00:17.086Z,9.24
2018-03-25T08:02:44.475Z,9.07
2018-03-25T08:05:11.870Z,9.21
2018-03-25T08:07:39.307Z,9.26
2018-03-25T08:10:06.703Z,9.33
2018-03-25T08:12:34.103Z,9.29
2018-03-25T08:15:01.495Z,9.39
2018-03-25T08:17:28.896Z,9.50
2018-03-25T08:19:56.387Z,9.48
2018-03-25T08:22:23.803Z,9.41
2018-03-25T08:24:51.189Z,9.44
2018-03-25T08:27:18.603Z,9.32
2018-03-25T08:29:45.992Z,9.45
2018-03-25T08:32:13.477Z,9.71
2018-03-25T08:34:40.884Z,9.83
2018-03-25T08:37:08.278Z,9.95
2018-03-25T08:39:35.727Z,10.13
2018-03-25T08:42:03.142Z,10.03
2018-03-25T08:44:30.521Z,9.97
2018-03-25T08:46:57.927Z,10.21
2018-03-25T08:49:25.330Z,10.40
2018-03-25T08:51:52.807Z,10.82
2018-03-25T08:54:20.267Z,11.13
2018-03-25T08:56:47.666Z,11.39
2018-03-25T08:59:15.059Z,11.43
2018-03-25T09:01:42.531Z,11.60
2018-03-25T09:04:09.987Z,12.78
2018-03-25T09:06:37.390Z,14.33
2018-03-25T09:09:04.787Z,15.98
2018-03-25T09:11:32.254Z,17.68
2018-03-25T09:13:59.643Z,18.65
2018-03-25T09:16:27.048Z,19.74
2018-03-25T09:18:54.436Z,20.35
2018-03-25T09:21:21.835Z,20.04
2018-03-25T09:23:49.231Z,19.57
2018-03-25T09:26:16.631Z,18.76
2018-03-25T09:28:44.036Z,18.00
2018-03-25T09:31:11.499Z,17.08
2018-03-25T09:33:38.891Z,17.40
2018-03-25T09:36:06.310Z,17.91
2018-03-25T09:38:33.702Z,17.73
2018-03-25T09:41:01.115Z,18.27
2018-03-25T09:43:28.499Z,17.83
2018-03-25T09:45:55.934Z,17.62
2018-03-25T09:48:23.327Z,17.76
2018-03-25T09:50:50.750Z,18.06
2018-03-25T09:53:18.151Z,18.07
2018-03-25T09:55:45.559Z,18.37
2018-03-25T09:58:12.953Z,18.67
2018-03-25T10:00:40.360Z,18.85
2018-03-25T10:03:13.377Z,19.12
2018-03-25T10:05:40.840Z,18.83
2018-03-25T10:08:08.230Z,18.63
2018-03-25T10:10:35.690Z,18.59
2018-03-25T10:13:03.090Z,18.71
2018-03-25T10:15:30.482Z,19.00
2018-03-25T10:17:57.898Z,19.12
2018-03-25T10:20:25.294Z,18.64
2018-03-25T10:22:52.770Z,17.64
2018-03-25T10:25:21.163Z,17.02
2018-03-25T10:27:48.568Z,16.43
2018-03-25T10:30:15.958Z,16.55
2018-03-25T10:32:43.362Z,15.77
2018-03-25T10:35:10.766Z,15.77
2018-03-25T10:37:38.167Z,15.56
2018-03-25T10:40:05.567Z,15.34
2018-03-25T10:42:33.039Z,14.88
2018-03-25T10:45:00.504Z,14.64
2018-03-25T10:47:27.916Z,14.48
2018-03-25T10:49:55.414Z,14.95
2018-03-25T10:52:22.823Z,15.45
2018-03-25T10:54:50.446Z,16.04
2018-03-25T10:57:17.896Z,16.24
2018-03-25T10:59:45.295Z,16.17
2018-03-25T11:02:12.719Z,15.60
2018-03-25T11:04:40.170Z,15.15
2018-03-25T11:07:07.515Z,14.71
2018-03-25T11:09:34.920Z,14.62
2018-03-25T11:12:02.355Z,14.67
2018-03-25T11:14:29.754Z,14.59
2018-03-25T11:16:57.156Z,14.33
2018-03-25T11:19:24.555Z,14.39
2018-03-25T11:21:51.977Z,14.57
2018-03-25T11:24:19.346Z,14.65
2018-03-25T11:26:46.738Z,14.95
2018-03-25T11:29:14.152Z,15.11
2018-03-25T11:31:41.589Z,15.07
2018-03-25T11:34:08.992Z,15.28
2018-03-25T11:36:36.387Z,15.52
2018-03-25T11:39:03.791Z,15.77
2018-03-25T11:41:31.182Z,15.75
2018-03-25T11:43:58.614Z,16.22
2018-03-25T11:46:26.071Z,16.60
2018-03-25T11:48:53.529Z,16.91
2018-03-25T11:51:20.989Z,17.03
2018-03-25T11:53:48.441Z,17.24
2018-03-25T11:56:15.832Z,17.49
2018-03-25T11:58:43.230Z,17.65
2018-03-25T12:01:10.631Z,17.57
2018-03-25T12:03:38.038Z,17.69
2018-03-25T12:06:05.435Z,17.50
2018-03-25T12:08:32.842Z,17.63
2018-03-25T12:11:00.336Z,17.24
2018-03-25T12:13:27.754Z,17.22
2018-03-25T12:15:55.152Z,17.42
2018-03-25T12:18:22.627Z,17.48
2018-03-25T12:20:50.007Z,17.22
2018-03-25T12:23:17.413Z,16.96
2018-03-25T12:25:44.806Z,17.03
2018-03-25T12:28:12.226Z,17.12
2018-03-25T12:30:39.687Z,17.34
2018-03-25T12:33:07.087Z,17.33
2018-03-25T12:35:35.369Z,17.24
2018-03-25T12:38:02.817Z,16.35
2018-03-25T12:40:30.231Z,16.76
2018-03-25T12:42:57.804Z,16.91
2018-03-25T12:45:25.191Z,17.03
2018-03-25T12:47:52.607Z,17.07
2018-03-25T12:50:20.003Z,17.17
2018-03-25T12:52:47.415Z,17.31
2018-03-25T12:55:14.822Z,17.40
2018-03-25T12:57:42.210Z,17.50
2018-03-25T13:00:09.615Z,17.58
2018-03-25T13:02:37.039Z,17.74
2018-03-25T13:05:04.438Z,17.41
2018-03-25T13:07:31.839Z,17.48
2018-03-25T13:09:59.243Z,17.02
2018-03-25T13:12:26.663Z,17.17
2018-03-25T13:14:54.123Z,16.82
2018-03-25T13:17:21.583Z,16.95
2018-03-25T13:19:49.030Z,17.06
2018-03-25T13:22:16.423Z,16.96
2018-03-25T13:24:43.829Z,16.98
2018-03-25T13:27:11.268Z,17.12
2018-03-25T13:29:38.666Z,16.76
2018-03-25T13:32:06.211Z,16.56
2018-03-25T13:34:33.606Z,16.53
2018-03-25T13:37:01.011Z,16.78
2018-03-25T13:39:28.438Z,16.54
2018-03-25T13:41:55.838Z,16.54
2018-03-25T13:44:23.238Z,16.44
2018-03-25T13:46:50.690Z,16.55
2018-03-25T13:49:18.098Z,16.28
2018-03-25T13:51:45.491Z,16.10
2018-03-25T13:54:12.975Z,15.64
2018-03-25T13:56:40.436Z,15.40
2018-03-25T13:59:07.891Z,15.25
2018-03-25T14:01:35.347Z,15.16
2018-03-25T14:04:02.807Z,15.12
2018-03-25T14:06:30.262Z,15.28
2018-03-25T14:08:57.733Z,15.33
2018-03-25T14:11:25.127Z,15.55
2018-03-25T14:13:52.527Z,15.49
2018-03-25T14:16:19.928Z,15.53
2018-03-25T14:18:47.342Z,15.40
2018-03-25T14:21:14.742Z,15.24
2018-03-25T14:23:42.134Z,15.14
2018-03-25T14:26:09.611Z,15.01
2018-03-25T14:28:37.010Z,14.88
2018-03-25T14:31:04.445Z,14.73
2018-03-25T14:33:31.830Z,14.99
2018-03-25T14:35:59.230Z,15.15
2018-03-25T14:38:26.622Z,15.27
2018-03-25T14:40:54.057Z,15.10
2018-03-25T14:43:21.503Z,15.01
2018-03-25T14:45:48.902Z,14.39
2018-03-25T14:48:16.315Z,13.88
2018-03-25T14:50:43.723Z,13.55
2018-03-25T14:53:11.119Z,13.92
2018-03-25T14:55:38.527Z,13.99
2018-03-25T14:58:05.949Z,14.01
2018-03-25T15:00:33.359Z,14.10
2018-03-25T15:03:00.747Z,14.20
2018-03-25T15:05:28.147Z,13.73
2018-03-25T15:07:55.561Z,13.80
2018-03-25T15:10:23.137Z,13.67
2018-03-25T15:12:50.587Z,13.67
2018-03-25T15:15:18.038Z,13.74
2018-03-25T15:17:45.435Z,13.61
2018-03-25T15:20:12.836Z,13.67
2018-03-25T15:22:40.323Z,13.56
2018-03-25T15:25:07.731Z,13.37
2018-03-25T15:27:35.124Z,13.51
2018-03-25T15:30:02.568Z,13.42
2018-03-25T15:32:29.975Z,13.21
2018-03-25T15:34:57.383Z,13.01
2018-03-25T15:37:25.660Z,13.12
2018-03-25T15:39:53.060Z,12.99
2018-03-25T15:42:20.523Z,12.97
2018-03-25T15:44:47.927Z,13.06
2018-03-25T15:47:15.339Z,13.18
2018-03-25T15:49:42.792Z,13.16
2018-03-25T15:52:10.263Z,12.80
2018-03-25T15:54:37.670Z,12.70
2018-03-25T15:57:05.167Z,12.55
2018-03-25T15:59:32.627Z,12.39
2018-03-25T16:02:00.080Z,12.31
2018-03-25T16:04:27.487Z,12.27
2018-03-25T16:06:54.889Z,12.21
2018-03-25T16:09:22.342Z,11.99
2018-03-25T16:11:49.812Z,11.97
2018-03-25T16:14:17.212Z,11.94
2018-03-25T16:16:44.718Z,12.11
2018-03-25T16:19:12.171Z,12.16
2018-03-25T16:21:39.571Z,12.26
2018-03-25T16:24:06.991Z,12.30
2018-03-25T16:26:34.390Z,12.47
2018-03-25T16:29:01.779Z,12.50
2018-03-25T16:31:29.191Z,12.48
2018-03-25T16:33:56.578Z,12.56
2018-03-25T16:36:24.145Z,12.61
2018-03-25T16:38:51.523Z,12.59
2018-03-25T16:41:18.978Z,12.51
2018-03-25T16:43:46.373Z,12.07
2018-03-25T16:46:13.788Z,12.16
2018-03-25T16:48:41.186Z,12.22
2018-03-25T16:51:08.587Z,12.05
2018-03-25T16:53:35.988Z,11.91
2018-03-25T16:56:03.434Z,12.07
2018-03-25T16:58:30.835Z,12.01
2018-03-25T17:00:58.253Z,11.85
2018-03-25T17:03:25.715Z,11.81
2018-03-25T17:05:53.172Z,11.68
2018-03-25T17:08:20.559Z,11.61
2018-03-25T17:10:47.980Z,11.46
2018-03-25T17:13:15.374Z,11.33
2018-03-25T17:15:42.785Z,11.40
2018-03-25T17:18:10.258Z,11.37
2018-03-25T17:20:37.659Z,11.37
2018-03-25T17:23:05.059Z,11.37
2018-03-25T17:25:32.514Z,11.29
2018-03-25T17:27:59.927Z,11.33
2018-03-25T17:30:27.322Z,11.24
2018-03-25T17:32:54.715Z,11.09
2018-03-25T17:35:22.139Z,10.87
2018-03-25T17:37:49.546Z,10.88
2018-03-25T17:40:16.943Z,10.95
2018-03-25T17:42:44.335Z,10.94
2018-03-25T17:45:11.754Z,10.96
2018-03-25T17:47:39.134Z,11.02
2018-03-25T17:50:06.580Z,11.21
2018-03-25T17:52:33.972Z,11.20
2018-03-25T17:55:01.365Z,11.00
2018-03-25T17:57:28.835Z,11.07
2018-03-25T17:59:56.307Z,11.27
2018-03-25T18:02:23.719Z,11.30
2018-03-25T18:04:51.121Z,11.37
2018-03-25T18:07:18.524Z,11.32
2018-03-25T18:09:45.914Z,11.32
2018-03-25T18:12:13.386Z,11.17
2018-03-25T18:14:40.842Z,10.86
2018-03-25T18:17:08.310Z,10.85
2018-03-25T18:19:35.702Z,10.81
2018-03-25T18:22:03.103Z,10.64
2018-03-25T18:24:30.550Z,10.25
2018-03-25T18:26:57.923Z,10.40
2018-03-25T18:29:25.323Z,10.59
2018-03-25T18:31:52.726Z,10.64
2018-03-25T18:34:20.136Z,10.68
2018-03-25T18:36:47.570Z,10.57
2018-03-25T18:39:15.018Z,10.53
2018-03-25T18:41:42.419Z,10.61
2018-03-25T18:44:09.919Z,10.70
2018-03-25T18:46:37.322Z,10.88
2018-03-25T18:49:04.724Z,10.65
2018-03-25T18:51:32.126Z,10.76
2018-03-25T18:53:59.543Z,10.83
2018-03-25T18:56:26.949Z,11.04
2018-03-25T18:58:54.462Z,11.02
2018-03-25T19:01:21.862Z,10.91
2018-03-25T19:03:49.362Z,11.07
2018-03-25T19:06:16.762Z,11.04
2018-03-25T19:08:44.162Z,11.08
2018-03-25T19:11:11.554Z,11.19
2018-03-25T19:13:38.951Z,11.24
2018-03-25T19:16:06.362Z,11.24
2018-03-25T19:18:33.818Z,11.28
2018-03-25T19:21:01.223Z,11.29
2018-03-25T19:23:28.634Z,11.20
2018-03-25T19:25:56.035Z,11.18
2018-03-25T19:28:23.434Z,11.21
2018-03-25T19:30:50.890Z,11.27
2018-03-25T19:33:18.282Z,11.29
2018-03-25T19:35:45.683Z,11.37
2018-03-25T19:38:13.092Z,11.39
2018-03-25T19:40:40.549Z,11.29
2018-03-25T19:43:07.875Z,11.32
2018-03-25T19:45:35.298Z,11.32
2018-03-25T19:48:02.695Z,11.36
2018-03-25T19:50:30.117Z,11.35
2018-03-25T19:52:57.597Z,11.32
2018-03-25T19:55:25.059Z,11.30
2018-03-25T19:57:52.503Z,11.28
2018-03-25T20:00:19.968Z,11.30
2018-03-25T20:02:47.366Z,11.24
2018-03-25T20:05:14.874Z,11.25
2018-03-25T20:07:42.336Z,11.23
2018-03-25T20:10:09.782Z,11.19
2018-03-25T20:12:37.193Z,11.18
2018-03-25T20:15:04.611Z,11.12
2018-03-25T20:17:32.046Z,11.12
2018-03-25T20:19:59.439Z,11.11
2018-03-25T20:22:26.879Z,11.08
2018-03-25T20:24:54.275Z,11.02
2018-03-25T20:27:21.791Z,10.78
2018-03-25T20:29:49.186Z,10.82
2018-03-25T20:32:16.741Z,10.88
2018-03-25T20:34:44.131Z,10.83
2018-03-25T20:37:11.623Z,10.83
2018-03-25T20:39:39.070Z,10.83
2018-03-25T20:42:06.471Z,10.88
2018-03-25T20:44:33.884Z,10.90
2018-03-25T20:47:01.341Z,10.91
2018-03-25T20:49:28.704Z,10.85
2018-03-25T20:51:56.111Z,10.80
2018-03-25T20:54:23.606Z,10.78
2018-03-25T20:56:51.016Z,10.74
2018-03-25T20:59:18.415Z,10.75
2018-03-25T21:01:45.814Z,10.64
2018-03-25T21:04:13.240Z,10.53
2018-03-25T21:06:40.683Z,10.49
2018-03-25T21:09:08.147Z,10.49
2018-03-25T21:11:35.591Z,10.52
2018-03-25T21:14:02.987Z,10.49
2018-03-25T21:16:30.394Z,10.43
2018-03-25T21:18:57.860Z,10.36
2018-03-25T21:21:25.258Z,10.33
2018-03-25T21:23:52.673Z,10.35
2018-03-25T21:26:20.090Z,10.34
2018-03-25T21:28:47.582Z,10.28
2018-03-25T21:31:14.994Z,10.32
2018-03-25T21:33:42.386Z,10.17
2018-03-25T21:36:09.786Z,10.15
2018-03-25T21:38:37.207Z,10.22
2018-03-25T21:41:04.606Z,10.02
2018-03-25T21:43:32.016Z,9.95
2018-03-25T21:45:59.471Z,10.01
2018-03-25T21:48:26.928Z,10.06
2018-03-25T21:50:54.380Z,10.05
2018-03-25T21:53:21.838Z,10.11
2018-03-25T21:55:49.291Z,10.11
2018-03-25T21:58:16.699Z,10.07
2018-03-25T22:00:44.136Z,10.09
2018-03-25T22:03:11.577Z,9.94
2018-03-25T22:05:39.050Z,9.90
2018-03-25T22:08:06.487Z,9.89
2018-03-25T22:10:33.891Z,9.93
2018-03-25T22:13:01.284Z,9.92
2018-03-25T22:15:28.689Z,9.78
2018-03-25T22:17:56.114Z,9.69
2018-03-25T22:20:23.515Z,9.77
2018-03-25T22:22:50.931Z,9.81
2018-03-25T22:25:18.323Z,9.65
2018-03-25T22:27:45.722Z,9.68
2018-03-25T22:30:13.193Z,9.54
2018-03-25T22:32:40.659Z,9.55
2018-03-25T22:35:08.102Z,9.61
2018-03-25T22:37:35.505Z,9.55
2018-03-25T22:40:02.900Z,9.48
2018-03-25T22:42:30.302Z,9.45
2018-03-25T22:44:57.747Z,9.57
2018-03-25T22:47:25.083Z,9.51
2018-03-25T22:49:52.539Z,9.59
2018-03-25T22:52:19.934Z,9.39
2018-03-25T22:54:47.333Z,9.32
2018-03-25T22:57:14.730Z,9.42
2018-03-25T22:59:42.151Z,9.52
2018-03-25T23:02:09.534Z,9.55
2018-03-25T23:04:36.933Z,9.54
2018-03-25T23:07:04.323Z,9.52
2018-03-25T23:09:31.796Z,9.41
2018-03-25T23:11:59.178Z,9.57
2018-03-25T23:14:26.562Z,9.31
2018-03-25T23:16:54.048Z,9.37
2018-03-25T23:19:21.811Z,9.27
2018-03-25T23:21:49.214Z,9.30
2018-03-25T23:24:16.606Z,9.34
2018-03-25T23:26:44.034Z,9.43
2018-03-25T23:29:11.432Z,9.40
2018-03-25T23:31:38.818Z,9.40
2018-03-25T23:34:06.227Z,9.30
2018-03-25T23:36:33.662Z,9.27
2018-03-25T23:39:01.063Z,9.38
2018-03-25T23:41:28.451Z,9.44
2018-03-25T23:43:55.844Z,9.31
2018-03-25T23:46:23.243Z,9.20
2018-03-25T23:48:50.634Z,9.26
2018-03-25T23:51:18.028Z,9.34
2018-03-25T23:53:45.438Z,9.38
2018-03-25T23:56:12.826Z,9.26
2018-03-25T23:58:40.242Z,9.27
